sensor_id;sensor_type;location;lat;lon;timestamp;temperature;humidity
23495;DHT22;26107;50.832;2.950;2023-07-13T00:08:07;16.70;99.90
23495;DHT22;26107;50.832;2.950;2023-07-13T00:23:09;16.70;99.90
23495;DHT22;26107;50.832;2.950;2023-07-13T00:38:10;16.80;99.90
23495;DHT22;26107;50.832;2.950;2023-07-13T00:53:10;16.40;99.90
23495;DHT22;26107;50.832;2.950;2023-07-13T01:08:12;16.30;99.90
23495;DHT22;26107;50.832;2.950;2023-07-13T01:23:12;16.10;99.90
23495;DHT22;26107;50.832;2.950;2023-07-13T01:38:20;15.90;99.90
23495;DHT22;26107;50.832;2.950;2023-07-13T01:53:21;16.10;99.90
23495;DHT22;26107;50.832;2.950;2023-07-13T02:08:24;16.20;99.90
23495;DHT22;26107;50.832;2.950;2023-07-13T02:23:25;16.10;99.90
23495;DHT22;26107;50.832;2.950;2023-07-13T02:38:25;16.10;99.90
23495;DHT22;26107;50.832;2.950;2023-07-13T02:53:31;16.40;99.90
23495;DHT22;26107;50.832;2.950;2023-07-13T03:08:32;16.40;99.90
23495;DHT22;26107;50.832;2.950;2023-07-13T03:23:34;16.10;99.90
23495;DHT22;26107;50.832;2.950;2023-07-13T03:38:37;16.20;99.90
23495;DHT22;26107;50.832;2.950;2023-07-13T03:53:42;16.20;99.90
23495;DHT22;26107;50.832;2.950;2023-07-13T04:08:46;16.20;99.90
23495;DHT22;26107;50.832;2.950;2023-07-13T04:23:50;16.40;99.90
23495;DHT22;26107;50.832;2.950;2023-07-13T04:38:50;16.20;99.90
23495;DHT22;26107;50.832;2.950;2023-07-13T04:53:51;16.40;99.90
23495;DHT22;26107;50.832;2.950;2023-07-13T05:08:55;16.50;99.90
23495;DHT22;26107;50.832;2.950;2023-07-13T05:23:58;16.50;99.90
23495;DHT22;26107;50.832;2.950;2023-07-13T05:38:59;16.50;99.90
23495;DHT22;26107;50.832;2.950;2023-07-13T05:53:59;16.50;99.90
23495;DHT22;26107;50.832;2.950;2023-07-13T06:09:00;16.80;99.90
23495;DHT22;26107;50.832;2.950;2023-07-13T06:24:03;16.80;99.90
23495;DHT22;26107;50.832;2.950;2023-07-13T06:39:04;17.00;99.90
23495;DHT22;26107;50.832;2.950;2023-07-13T06:54:05;17.10;99.90
23495;DHT22;26107;50.832;2.950;2023-07-13T07:09:07;17.10;99.90
23495;DHT22;26107;50.832;2.950;2023-07-13T07:24:11;17.50;99.90
23495;DHT22;26107;50.832;2.950;2023-07-13T07:39:16;18.00;99.90
23495;DHT22;26107;50.832;2.950;2023-07-13T07:54:17;18.10;99.90
23495;DHT22;26107;50.832;2.950;2023-07-13T08:09:18;18.20;99.90
23495;DHT22;26107;50.832;2.950;2023-07-13T08:24:23;18.40;99.90
23495;DHT22;26107;50.832;2.950;2023-07-13T08:39:30;18.50;99.90
23495;DHT22;26107;50.832;2.950;2023-07-13T08:54:45;18.70;99.90
23495;DHT22;26107;50.832;2.950;2023-07-13T09:40:30;19.90;99.90
23495;DHT22;26107;50.832;2.950;2023-07-13T09:55:39;19.10;99.90
23495;DHT22;26107;50.832;2.950;2023-07-13T10:10:40;17.80;99.90
23495;DHT22;26107;50.832;2.950;2023-07-13T10:25:42;17.90;99.90
23495;DHT22;26107;50.832;2.950;2023-07-13T11:10:55;20.00;99.90
23495;DHT22;26107;50.832;2.950;2023-07-13T11:25:57;20.50;99.90
23495;DHT22;26107;50.832;2.950;2023-07-13T11:41:04;20.80;99.90
23495;DHT22;26107;50.832;2.950;2023-07-13T11:56:05;21.00;99.90
23495;DHT22;26107;50.832;2.950;2023-07-13T12:11:16;21.30;99.90
23495;DHT22;26107;50.832;2.950;2023-07-13T12:26:18;21.50;99.90
23495;DHT22;26107;50.832;2.950;2023-07-13T12:41:19;21.80;99.90
23495;DHT22;26107;50.832;2.950;2023-07-13T12:56:23;22.00;99.90
23495;DHT22;26107;50.832;2.950;2023-07-13T13:11:30;22.20;99.90
23495;DHT22;26107;50.832;2.950;2023-07-13T13:26:37;22.40;99.90
23495;DHT22;26107;50.832;2.950;2023-07-13T13:41:45;22.10;99.90
23495;DHT22;26107;50.832;2.950;2023-07-13T13:56:47;22.20;99.90
23495;DHT22;26107;50.832;2.950;2023-07-13T14:11:50;22.60;99.90
23495;DHT22;26107;50.832;2.950;2023-07-13T14:26:54;22.80;99.90
23495;DHT22;26107;50.832;2.950;2023-07-13T14:41:57;22.70;99.90
23495;DHT22;26107;50.832;2.950;2023-07-13T14:57:03;23.10;99.90
23495;DHT22;26107;50.832;2.950;2023-07-13T15:12:04;23.00;99.90
23495;DHT22;26107;50.832;2.950;2023-07-13T15:27:13;23.50;99.90
23495;DHT22;26107;50.832;2.950;2023-07-13T15:42:15;23.50;99.70
23495;DHT22;26107;50.832;2.950;2023-07-13T15:57:17;23.30;99.90
23495;DHT22;26107;50.832;2.950;2023-07-13T16:12:22;23.90;99.60
23495;DHT22;26107;50.832;2.950;2023-07-13T16:27:23;23.10;99.90
23495;DHT22;26107;50.832;2.950;2023-07-13T16:42:27;25.40;98.50
23495;DHT22;26107;50.832;2.950;2023-07-13T16:57:33;26.30;97.20
23495;DHT22;26107;50.832;2.950;2023-07-13T17:12:37;26.50;96.40
23495;DHT22;26107;50.832;2.950;2023-07-13T17:27:38;25.00;97.90
23495;DHT22;26107;50.832;2.950;2023-07-13T17:42:41;22.30;99.90
23495;DHT22;26107;50.832;2.950;2023-07-13T17:57:44;21.80;99.90
23495;DHT22;26107;50.832;2.950;2023-07-13T18:12:52;21.70;99.90
23495;DHT22;26107;50.832;2.950;2023-07-13T18:27:53;21.10;99.90
23495;DHT22;26107;50.832;2.950;2023-07-13T18:42:56;20.70;99.90
23495;DHT22;26107;50.832;2.950;2023-07-13T18:57:57;20.60;99.90
23495;DHT22;26107;50.832;2.950;2023-07-13T19:13:00;20.40;99.90
23495;DHT22;26107;50.832;2.950;2023-07-13T19:28:25;20.00;99.90
23495;DHT22;26107;50.832;2.950;2023-07-13T19:43:26;20.00;99.90
23495;DHT22;26107;50.832;2.950;2023-07-13T19:58:26;20.10;99.90
23495;DHT22;26107;50.832;2.950;2023-07-13T20:13:27;20.10;99.90
23495;DHT22;26107;50.832;2.950;2023-07-13T20:28:31;20.00;99.90
23495;DHT22;26107;50.832;2.950;2023-07-13T20:43:32;20.10;99.90
23495;DHT22;26107;50.832;2.950;2023-07-13T20:58:34;19.20;99.90
23495;DHT22;26107;50.832;2.950;2023-07-13T21:13:39;19.30;99.90
23495;DHT22;26107;50.832;2.950;2023-07-13T21:28:42;18.60;99.90
23495;DHT22;26107;50.832;2.950;2023-07-13T21:43:43;18.50;99.90
23495;DHT22;26107;50.832;2.950;2023-07-13T21:58:44;18.60;99.90
23495;DHT22;26107;50.832;2.950;2023-07-13T22:13:53;18.60;99.90
23495;DHT22;26107;50.832;2.950;2023-07-13T22:28:55;18.60;99.90
23495;DHT22;26107;50.832;2.950;2023-07-13T22:43:56;18.30;99.90
23495;DHT22;26107;50.832;2.950;2023-07-13T22:58:57;18.00;99.90
23495;DHT22;26107;50.832;2.950;2023-07-13T23:13:57;17.80;99.90
23495;DHT22;26107;50.832;2.950;2023-07-13T23:29:00;17.60;99.90
23495;DHT22;26107;50.832;2.950;2023-07-13T23:44:01;17.30;99.90
23495;DHT22;26107;50.832;2.950;2023-07-13T23:59:04;17.30;99.90
